Time;durP1;ratioP1;P1;durP2;ratioP2;P2;SDS_P1;SDS_P2;PMS_P1;PMS_P2;Temp;Humidity;BMP_temperature;BMP_pressure;BME280_temperature;BME280_humidity;BME280_pressure;Samples;Min_cycle;Max_cycle;Signal;HPM_P1;HPM_P2
2022/12/13 00:01:51;;;;;;;;;;;;;;;;;;6242603;23;19904;-69
2022/12/13 00:04:17;;;;;;;;;;;;;;;;;;6243119;22;19998;-69
2022/12/13 00:06:43;;;;;;;;;;;-4.00;99.90;;;;;;6242841;23;19999;-69
2022/12/13 00:09:09;;;;;;;;;;;;;;;;;;6242756;23;19903;-69
2022/12/13 00:11:34;;;;;;;;;;;-3.70;99.90;;;;;;6243001;23;19992;-69
2022/12/13 00:14:00;;;;;;;;;;;;;;;;;;6241852;23;19922;-69
2022/12/13 00:16:26;;;;;;;;;;;-3.60;99.90;;;;;;6244584;23;19911;-69
2022/12/13 00:18:54;;;;;;;;;;;;;;;;;;6244424;23;20201;-69
2022/12/13 00:21:20;;;;;;;;;;;;;;;;;;6245661;23;19990;-69
2022/12/13 00:23:45;;;;;;;;;;;-3.80;99.90;;;;;;6217589;23;20001;-69
2022/12/13 00:26:11;;;;;;;;;;;;;;;;;;6244538;23;20079;-69
2022/12/13 00:28:37;;;;;;;;;;;-3.90;99.90;;;;;;6244542;23;20531;-69
2022/12/13 00:31:03;;;;;;;;;;;;;;;;;;6244609;23;19904;-69
2022/12/13 00:33:29;;;;;;;;;;;-4.10;99.90;;;;;;6245006;23;19914;-70
2022/12/13 00:35:54;;;;;;;;;;;;;;;;;;6244323;22;20383;-69
2022/12/13 00:38:20;;;;;;;;;;;-4.20;99.90;;;;;;6245163;23;19962;-69
2022/12/13 00:40:46;;;;;;;;;;;;;;;;;;6244256;23;20210;-69
2022/12/13 00:43:11;;;;;;;;;;;-4.30;99.90;;;;;;6244659;23;19907;-69
2022/12/13 00:45:37;;;;;;;;;;;;;;;;;;6244547;23;19930;-69
2022/12/13 00:48:03;;;;;;;;;;;-4.40;99.90;;;;;;6244308;23;19907;-69
2022/12/13 00:50:29;;;;;;;;;;;;;;;;;;6243883;23;20329;-69
2022/12/13 00:52:55;;;;;;;;;;;-4.40;99.90;;;;;;6243834;23;19904;-69
2022/12/13 00:55:20;;;;;;;;;;;-4.50;99.90;;;;;;6243968;23;19903;-69
2022/12/13 00:57:46;;;;;;;;;;;;;;;;;;6244289;23;19910;-69
2022/12/13 01:00:11;;;;;;;;;;;-4.60;99.90;;;;;;6244445;23;19908;-69
2022/12/13 01:02:37;;;;;;;;;;;;;;;;;;6244550;23;19990;-69
2022/12/13 01:05:03;;;;;;;;;;;;;;;;;;6244094;23;20210;-69
2022/12/13 01:07:29;;;;;;;;;;;-4.40;99.90;;;;;;6217716;23;19986;-69
2022/12/13 01:09:54;;;;;;;;;;;;;;;;;;6216039;23;19908;-69
2022/12/13 01:12:20;;;;;;;;;;;;;;;;;;6244445;23;19943;-69
2022/12/13 01:14:46;;;;;;;;;;;;;;;;;;6243829;22;20244;-69
2022/12/13 01:17:12;;;;;;;;;;;-4.40;99.90;;;;;;6244116;23;19934;-69
2022/12/13 01:19:38;;;;;;;;;;;;;;;;;;6244030;22;19983;-71
2022/12/13 01:22:04;;;;;;;;;;;-4.60;99.90;;;;;;6244283;23;19904;-69
2022/12/13 01:24:30;;;;;;;;;;;-4.70;99.90;;;;;;6243654;22;19927;-69
2022/12/13 01:26:56;;;;;;;;;;;-4.70;99.90;;;;;;6243338;23;19930;-69
2022/12/13 01:29:22;;;;;;;;;;;-4.70;99.90;;;;;;6244360;23;19904;-69
2022/12/13 01:31:48;;;;;;;;;;;;;;;;;;6244144;23;19911;-69
2022/12/13 01:34:13;;;;;;;;;;;;;;;;;;6243915;23;19904;-69
2022/12/13 01:36:39;;;;;;;;;;;;;;;;;;6243932;23;19907;-69
2022/12/13 01:39:05;;;;;;;;;;;;;;;;;;6243352;23;19904;-69
2022/12/13 01:41:31;;;;;;;;;;;;;;;;;;6244295;23;19956;-69
2022/12/13 01:43:59;;;;;;;;;;;;;;;;;;6243437;23;19904;-69
2022/12/13 01:46:25;;;;;;;;;;;;;;;;;;6244029;23;19908;-69
2022/12/13 01:48:51;;;;;;;;;;;;;;;;;;6243574;23;19957;-69
2022/12/13 01:51:17;;;;;;;;;;;;;;;;;;6243983;23;19903;-69
2022/12/13 01:53:43;;;;;;;;;;;;;;;;;;6243038;23;19933;-69
2022/12/13 01:56:09;;;;;;;;;;;;;;;;;;6243669;23;19926;-69
2022/12/13 01:58:35;;;;;;;;;;;;;;;;;;6244006;23;19908;-69
2022/12/13 02:01:00;;;;;;;;;;;;;;;;;;6243468;22;19903;-69
2022/12/13 02:03:26;;;;;;;;;;;;;;;;;;6216883;23;20371;-69
2022/12/13 02:05:52;;;;;;;;;;;;;;;;;;6243220;22;19943;-69
2022/12/13 02:08:18;;;;;;;;;;;;;;;;;;6243387;23;19904;-69
2022/12/13 02:10:44;;;;;;;;;;;;;;;;;;6243564;23;19919;-69
2022/12/13 02:13:10;;;;;;;;;;;;;;;;;;6243286;23;19911;-69
2022/12/13 02:15:36;;;;;;;;;;;;;;;;;;6243880;23;19934;-69
2022/12/13 02:18:01;;;;;;;;;;;;;;;;;;6242992;23;19931;-69
2022/12/13 02:20:46;;;;;;;;;;;-5.10;99.90;;;;;;6243791;23;20339;-69
2022/12/13 02:23:12;;;;;;;;;;;;;;;;;;6242847;23;20213;-69
2022/12/13 02:25:37;;;;;;;;;;;;;;;;;;6243582;23;19978;-69
2022/12/13 02:28:03;;;;;;;;;;;;;;;;;;6243464;23;19990;-69
2022/12/13 02:30:29;;;;;;;;;;;;;;;;;;6243685;23;19982;-69
2022/12/13 02:32:55;;;;;;;;;;;;;;;;;;6215957;23;19903;-69
2022/12/13 02:35:21;;;;;;;;;;;;;;;;;;6243694;22;19904;-69
2022/12/13 02:37:47;;;;;;;;;;;;;;;;;;6242575;23;20210;-69
2022/12/13 02:40:13;;;;;;;;;;;;;;;;;;6243424;23;19908;-69
2022/12/13 02:42:38;;;;;;;;;;;;;;;;;;6216358;23;19925;-69
2022/12/13 02:45:04;;;;;;;;;;;;;;;;;;6243277;23;19911;-69
2022/12/13 02:47:30;;;;;;;;;;;;;;;;;;6243773;23;19912;-69
2022/12/13 02:49:56;;;;;;;;;;;;;;;;;;6242949;23;20366;-69
2022/12/13 02:52:22;;;;;;;;;;;;;;;;;;6243340;23;19926;-69
2022/12/13 02:54:48;;;;;;;;;;;;;;;;;;6243020;23;20232;-69
2022/12/13 02:57:14;;;;;;;;;;;;;;;;;;6242990;23;19904;-69
2022/12/13 02:59:39;;;;;;;;;;;;;;;;;;6242868;23;19910;-69
2022/12/13 03:02:05;;;;;;;;;;;;;;;;;;6242976;23;19904;-69
2022/12/13 03:04:31;;;;;;;;;;;;;;;;;;6243382;23;19904;-70
2022/12/13 03:06:57;;;;;;;;;;;;;;;;;;6242099;23;19922;-69
2022/12/13 03:09:24;;;;;;;;;;;;;;;;;;6243234;23;19910;-69
2022/12/13 03:14:34;;;;;;;;;;;;;;;;;;6243122;23;19922;-69
2022/12/13 03:17:00;;;;;;;;;;;;;;;;;;6242601;23;19903;-69
2022/12/13 03:19:26;;;;;;;;;;;;;;;;;;6243024;23;19968;-69
2022/12/13 03:21:52;;;;;;;;;;;;;;;;;;6241939;23;19904;-69
2022/12/13 03:24:18;;;;;;;;;;;;;;;;;;6242632;23;20240;-69
2022/12/13 03:26:44;;;;;;;;;;;;;;;;;;6242650;23;19994;-69
2022/12/13 03:29:10;;;;;;;;;;;;;;;;;;6242742;23;19903;-69
2022/12/13 03:31:35;;;;;;;;;;;;;;;;;;6243044;23;20333;-69
2022/12/13 03:34:01;;;;;;;;;;;;;;;;;;6242299;23;19904;-70
2022/12/13 03:36:27;;;;;;;;;;;;;;;;;;6242460;23;19911;-69
2022/12/13 03:38:53;;;;;;;;;;;;;;;;;;6242200;23;19911;-69
2022/12/13 03:41:19;;;;;;;;;;;;;;;;;;6242909;23;19903;-70
2022/12/13 03:43:45;;;;;;;;;;;;;;;;;;6240743;23;19907;-69
2022/12/13 03:46:11;;;;;;;;;;;;;;;;;;6242111;23;19943;-69
2022/12/13 03:48:37;;;;;;;;;;;;;;;;;;6243144;23;19904;-69
2022/12/13 03:51:02;;;;;;;;;;;;;;;;;;6242036;23;20224;-69
2022/12/13 03:53:28;;;;;;;;;;;;;;;;;;6242965;23;19914;-69
2022/12/13 03:55:54;;;;;;;;;;;;;;;;;;6241926;23;19962;-70
2022/12/13 03:58:20;;;;;;;;;;;;;;;;;;6242944;23;19935;-69
2022/12/13 04:00:46;;;;;;;;;;;;;;;;;;6242267;23;19904;-69
2022/12/13 04:03:12;;;;;;;;;;;;;;;;;;6215720;23;19908;-69
2022/12/13 04:05:38;;;;;;;;;;;;;;;;;;6241801;23;19908;-69
2022/12/13 04:08:04;;;;;;;;;;;;;;;;;;6241597;23;19916;-69
2022/12/13 04:10:29;;;;;;;;;;;;;;;;;;6240318;23;19915;-69
2022/12/13 04:15:47;;;;;;;;;;;;;;;;;;6239472;23;19951;-69
2022/12/13 04:18:13;;;;;;;;;;;;;;;;;;6240213;23;19925;-69
2022/12/13 04:20:39;;;;;;;;;;;;;;;;;;6239438;22;20443;-70
2022/12/13 04:23:05;;;;;;;;;;;;;;;;;;6240482;23;19978;-69
2022/12/13 04:25:31;;;;;;;;;;;;;;;;;;6242018;23;20305;-69
2022/12/13 04:27:56;;;;;;;;;;;;;;;;;;6242230;23;19950;-71
2022/12/13 04:30:22;;;;;;;;;;;;;;;;;;6242092;23;19958;-69
2022/12/13 04:32:48;;;;;;;;;;;;;;;;;;6241746;22;19908;-69
2022/12/13 04:35:14;;;;;;;;;;;;;;;;;;6242575;23;19934;-69
2022/12/13 04:37:40;;;;;;;;;;;;;;;;;;6242618;22;19903;-69
2022/12/13 04:40:06;;;;;;;;;;;;;;;;;;6242281;23;20305;-69
2022/12/13 04:42:32;;;;;;;;;;;;;;;;;;6242496;23;19907;-70
2022/12/13 04:44:57;;;;;;;;;;;;;;;;;;6242399;23;19908;-70
2022/12/13 04:47:23;;;;;;;;;;;;;;;;;;6242019;23;19927;-70
2022/12/13 04:49:49;;;;;;;;;;;;;;;;;;6242522;23;20362;-70
2022/12/13 04:52:15;;;;;;;;;;;;;;;;;;6242426;23;19927;-70
2022/12/13 04:54:41;;;;;;;;;;;;;;;;;;6242271;23;19911;-69
2022/12/13 04:57:07;;;;;;;;;;;;;;;;;;6242085;23;19933;-70
2022/12/13 04:59:33;;;;;;;;;;;;;;;;;;6243010;22;19908;-70
2022/12/13 05:01:58;;;;;;;;;;;;;;;;;;6241943;23;19910;-70
2022/12/13 05:04:24;;;;;;;;;;;;;;;;;;6244747;23;19915;-70
2022/12/13 05:06:50;;;;;;;;;;;;;;;;;;6244180;23;19954;-70
2022/12/13 05:09:16;;;;;;;;;;;;;;;;;;6244005;23;19982;-69
2022/12/13 05:11:42;;;;;;;;;;;;;;;;;;6244114;23;19904;-70
2022/12/13 05:14:08;;;;;;;;;;;;;;;;;;6244074;22;19916;-70
2022/12/13 05:16:34;;;;;;;;;;;;;;;;;;6243768;23;19907;-70
2022/12/13 05:18:59;;;;;;;;;;;;;;;;;;6243865;23;19958;-70
2022/12/13 05:21:25;;;;;;;;;;;;;;;;;;6243819;23;20229;-70
2022/12/13 05:23:51;;;;;;;;;;;;;;;;;;6244137;23;19983;-69
2022/12/13 05:26:17;;;;;;;;;;;;;;;;;;6244651;23;19908;-70
2022/12/13 05:28:43;;;;;;;;;;;;;;;;;;6243926;23;20257;-70
2022/12/13 05:31:09;;;;;;;;;;;;;;;;;;6243677;23;19907;-70
2022/12/13 05:33:35;;;;;;;;;;;;;;;;;;6244534;23;20385;-70
2022/12/13 05:36:01;;;;;;;;;;;;;;;;;;6216600;23;19910;-70
2022/12/13 05:38:26;;;;;;;;;;;;;;;;;;6244596;23;19904;-70
2022/12/13 05:40:52;;;;;;;;;;;;;;;;;;6243513;23;19910;-70
2022/12/13 05:43:18;;;;;;;;;;;;;;;;;;6244261;23;20463;-70
2022/12/13 05:45:45;;;;;;;;;;;;;;;;;;6243213;23;19942;-70
2022/12/13 05:48:10;;;;;;;;;;;;;;;;;;6244185;23;19994;-69
2022/12/13 05:50:40;;;;;;;;;;;;;;;;;;6244389;23;19927;-70
2022/12/13 05:53:05;;;;;;;;;;;;;;;;;;6243957;23;19953;-70
2022/12/13 05:55:31;;;;;;;;;;;;;;;;;;6244023;22;20076;-71
2022/12/13 05:57:57;;;;;;;;;;;;;;;;;;6243622;23;20308;-70
2022/12/13 06:00:23;;;;;;;;;;;;;;;;;;6243521;23;19910;-70
2022/12/13 06:02:49;;;;;;;;;;;;;;;;;;6243762;23;20372;-69
2022/12/13 06:05:15;;;;;;;;;;;;;;;;;;6243786;23;19911;-70
2022/12/13 06:07:41;;;;;;;;;;;;;;;;;;6243826;23;19962;-69
2022/12/13 06:10:06;;;;;;;;;;;;;;;;;;6243629;23;20368;-70
2022/12/13 06:12:32;;;;;;;;;;;;;;;;;;6243845;23;19957;-69
2022/12/13 06:14:58;;;;;;;;;;;;;;;;;;6215944;23;19915;-70
2022/12/13 06:17:24;;;;;;;;;;;;;;;;;;6244080;22;20434;-70
2022/12/13 06:19:50;;;;;;;;;;;;;;;;;;6243553;23;19904;-70
2022/12/13 06:22:16;;;;;;;;;;;;;;;;;;6243764;22;19953;-70
2022/12/13 06:24:41;;;;;;;;;;;-4.70;99.90;;;;;;6243483;22;20356;-70
2022/12/13 06:27:07;;;;;;;;;;;;;;;;;;6243581;23;19907;-70
2022/12/13 06:29:33;;;;;;;;;;;;;;;;;;6243275;23;20313;-70
2022/12/13 06:31:59;;;;;;;;;;;;;;;;;;6243232;23;19939;-69
2022/12/13 06:34:25;;;;;;;;;;;;;;;;;;6243753;23;19914;-70
2022/12/13 06:36:51;;;;;;;;;;;;;;;;;;6216576;23;20197;-70
2022/12/13 06:39:17;;;;;;;;;;;;;;;;;;6243371;23;19914;-70
2022/12/13 06:41:43;;;;;;;;;;;;;;;;;;6243262;23;19931;-70
2022/12/13 06:44:08;;;;;;;;;;;;;;;;;;6242832;23;19904;-70
2022/12/13 06:46:35;;;;;;;;;;;;;;;;;;6243671;23;20320;-70
2022/12/13 06:49:01;;;;;;;;;;;;;;;;;;6243227;23;19964;-70
2022/12/13 06:51:26;;;;;;;;;;;;;;;;;;6243960;23;19949;-70
2022/12/13 06:53:52;;;;;;;;;;;;;;;;;;6243050;23;20321;-70
2022/12/13 06:56:18;;;;;;;;;;;;;;;;;;6243642;23;19908;-70
2022/12/13 06:58:44;;;;;;;;;;;;;;;;;;6242652;23;19958;-70
2022/12/13 07:01:10;;;;;;;;;;;;;;;;;;6243263;23;19982;-69
2022/12/13 07:03:36;;;;;;;;;;;;;;;;;;6243535;23;20235;-69
2022/12/13 07:06:02;;;;;;;;;;;;;;;;;;6242808;23;19912;-69
2022/12/13 07:08:27;;;;;;;;;;;;;;;;;;6244140;22;19903;-69
2022/12/13 07:10:54;;;;;;;;;;;-5.30;99.90;;;;;;6242628;23;20317;-69
2022/12/13 07:13:19;;;;;;;;;;;;;;;;;;6242578;23;19947;-69
2022/12/13 07:15:45;;;;;;;;;;;;;;;;;;6243072;23;20332;-69
2022/12/13 07:18:11;;;;;;;;;;;;;;;;;;6243144;23;20350;-69
2022/12/13 07:20:40;;;;;;;;;;;-5.30;99.90;;;;;;6243378;23;19946;-70
2022/12/13 07:23:06;;;;;;;;;;;;;;;;;;6243047;23;19903;-69
2022/12/13 07:25:31;;;;;;;;;;;-5.30;99.90;;;;;;6243123;23;19926;-69
2022/12/13 07:27:57;;;;;;;;;;;;;;;;;;6242268;23;19967;-70
2022/12/13 07:30:23;;;;;;;;;;;-5.30;99.90;;;;;;6243595;23;19908;-70
2022/12/13 07:32:49;;;;;;;;;;;;;;;;;;6242575;23;19904;-70
2022/12/13 07:35:14;;;;;;;;;;;;;;;;;;6243201;23;19990;-70
2022/12/13 07:37:40;;;;;;;;;;;-5.30;99.90;;;;;;6243038;23;19939;-70
2022/12/13 07:40:06;;;;;;;;;;;-5.40;99.90;;;;;;6242944;23;19904;-71
2022/12/13 07:42:32;;;;;;;;;;;-5.40;99.90;;;;;;6242911;23;20224;-70
2022/12/13 07:44:57;;;;;;;;;;;-5.40;99.90;;;;;;6242859;22;19907;-70
2022/12/13 07:47:28;;;;;;;;;;;-5.40;99.90;;;;;;6243023;23;19915;-70
2022/12/13 07:49:53;;;;;;;;;;;-5.50;99.90;;;;;;6242656;23;19911;-70
2022/12/13 07:52:19;;;;;;;;;;;;;;;;;;6243273;23;20216;-70
2022/12/13 07:54:44;;;;;;;;;;;-5.40;99.90;;;;;;6242684;23;19983;-70
2022/12/13 07:57:10;;;;;;;;;;;-5.40;99.90;;;;;;6242002;22;19986;-70
2022/12/13 07:59:35;;;;;;;;;;;-5.40;99.90;;;;;;6243061;23;19943;-70
2022/12/13 08:02:01;;;;;;;;;;;-5.30;99.90;;;;;;6237782;22;19907;-69
2022/12/13 08:04:27;;;;;;;;;;;;;;;;;;6241373;23;19998;-70
2022/12/13 08:06:53;;;;;;;;;;;;;;;;;;6214318;23;19999;-70
2022/12/13 08:09:18;;;;;;;;;;;;;;;;;;6241861;23;19942;-71
2022/12/13 08:11:44;;;;;;;;;;;;;;;;;;6239405;23;20316;-70
2022/12/13 08:14:10;;;;;;;;;;;-5.20;99.90;;;;;;6240495;23;19915;-71
2022/12/13 08:16:35;;;;;;;;;;;-5.40;99.90;;;;;;6242344;22;19939;-71
2022/12/13 08:19:01;;;;;;;;;;;-5.20;99.90;;;;;;6241608;22;19918;-71
2022/12/13 08:21:27;;;;;;;;;;;;;;;;;;6214156;23;19971;-71
2022/12/13 08:23:52;;;;;;;;;;;-5.10;99.90;;;;;;6240825;23;19929;-71
2022/12/13 08:26:18;;;;;;;;;;;;;;;;;;6241009;23;20264;-71
2022/12/13 08:28:43;;;;;;;;;;;-5.00;99.90;;;;;;6241960;23;19904;-70
2022/12/13 08:31:13;;;;;;;;;;;;;;;;;;6241842;23;19904;-68
2022/12/13 08:33:39;;;;;;;;;;;-4.50;99.90;;;;;;6239696;22;19903;-69
2022/12/13 08:36:05;;;;;;;;;;;;;;;;;;6242736;22;20321;-69
2022/12/13 08:38:31;;;;;;;;;;;;;;;;;;6244382;23;19904;-69
2022/12/13 08:40:57;;;;;;;;;;;;;;;;;;6242852;23;20371;-69
2022/12/13 08:43:22;;;;;;;;;;;-4.10;99.90;;;;;;6241351;23;19939;-69
2022/12/13 08:45:48;;;;;;;;;;;-4.30;99.90;;;;;;6243527;23;19934;-69
2022/12/13 08:48:14;;;;;;;;;;;;;;;;;;6243770;23;19965;-69
2022/12/13 08:50:40;;;;;;;;;;;;;;;;;;6243786;23;19983;-69
2022/12/13 08:53:06;;;;;;;;;;;;;;;;;;6242663;23;19904;-69
2022/12/13 08:55:32;;;;;;;;;;;;;;;;;;6241948;23;19950;-69
2022/12/13 08:57:57;;;;;;;;;;;-3.90;99.90;;;;;;6243663;22;20233;-69
2022/12/13 09:00:23;;;;;;;;;;;-3.80;99.90;;;;;;6244463;23;19910;-69
2022/12/13 09:02:49;;;;;;;;;;;;;;;;;;6242924;23;20441;-70
2022/12/13 09:05:14;;;;;;;;;;;-3.70;99.90;;;;;;6242181;23;20060;-69
2022/12/13 09:07:41;;;;;;;;;;;;;;;;;;6242231;23;20305;-70
2022/12/13 09:10:07;;;;;;;;;;;;;;;;;;6242756;22;19908;-69
2022/12/13 09:12:33;;;;;;;;;;;;;;;;;;6242788;23;19904;-69
2022/12/13 09:14:59;;;;;;;;;;;;;;;;;;6241925;23;19954;-70
2022/12/13 09:17:25;;;;;;;;;;;-3.70;99.90;;;;;;6243504;23;19908;-69
2022/12/13 09:19:51;;;;;;;;;;;-3.70;99.90;;;;;;6243610;22;19904;-70
2022/12/13 09:22:17;;;;;;;;;;;-3.90;99.90;;;;;;6243508;23;19904;-69
2022/12/13 09:24:42;;;;;;;;;;;;;;;;;;6242232;23;20017;-69
2022/12/13 09:27:09;;;;;;;;;;;;;;;;;;6242246;22;19967;-69
2022/12/13 09:29:35;;;;;;;;;;;-3.60;99.90;;;;;;6243540;23;19911;-70
2022/12/13 09:32:01;;;;;;;;;;;;;;;;;;6243017;23;20237;-69
2022/12/13 09:34:27;;;;;;;;;;;-3.50;99.90;;;;;;6243136;23;19911;-69
2022/12/13 09:36:52;;;;;;;;;;;-3.40;99.90;;;;;;6241462;23;20313;-68
2022/12/13 09:39:18;;;;;;;;;;;;;;;;;;6243219;22;19969;-68
2022/12/13 09:41:47;;;;;;;;;;;-3.30;99.90;;;;;;6243391;23;19903;-69
2022/12/13 09:44:18;;;;;;;;;;;-3.30;99.90;;;;;;6241825;23;19915;-70
2022/12/13 09:46:44;;;;;;;;;;;;;;;;;;6242007;23;19912;-68
2022/12/13 09:49:10;;;;;;;;;;;;;;;;;;6242518;22;19973;-71
2022/12/13 09:51:35;;;;;;;;;;;-3.20;99.90;;;;;;6243115;22;19903;-69
2022/12/13 09:54:01;;;;;;;;;;;-3.20;99.90;;;;;;6240944;23;19914;-69
2022/12/13 09:56:26;;;;;;;;;;;-3.30;99.90;;;;;;6243991;22;19904;-69
2022/12/13 09:58:54;;;;;;;;;;;-3.20;99.90;;;;;;6241536;23;19953;-69
2022/12/13 10:01:20;;;;;;;;;;;;;;;;;;6243584;23;19904;-71
2022/12/13 10:03:46;;;;;;;;;;;;;;;;;;6241498;23;19903;-69
2022/12/13 10:06:13;;;;;;;;;;;-3.20;99.90;;;;;;6242383;22;20294;-69
2022/12/13 10:08:43;;;;;;;;;;;-3.10;99.90;;;;;;6241056;23;20236;-69
2022/12/13 10:11:13;;;;;;;;;;;-3.20;99.90;;;;;;6242781;23;19904;-69
2022/12/13 10:13:38;;;;;;;;;;;;;;;;;;6241725;22;20218;-70
2022/12/13 10:16:04;;;;;;;;;;;;;;;;;;6242655;23;19929;-69
2022/12/13 10:18:30;;;;;;;;;;;;;;;;;;6242789;23;19915;-69
2022/12/13 10:20:56;;;;;;;;;;;-3.00;99.90;;;;;;6240530;22;20340;-69
2022/12/13 10:23:22;;;;;;;;;;;;;;;;;;6241963;23;19903;-70
2022/12/13 10:25:48;;;;;;;;;;;;;;;;;;6242242;23;19978;-69
2022/12/13 10:28:14;;;;;;;;;;;;;;;;;;6242537;23;19907;-70
2022/12/13 10:30:40;;;;;;;;;;;;;;;;;;6241165;23;19908;-69
2022/12/13 10:33:06;;;;;;;;;;;;;;;;;;6241264;23;20033;-69
2022/12/13 10:35:39;;;;;;;;;;;-2.80;99.90;;;;;;6242743;23;19939;-69
2022/12/13 10:38:09;;;;;;;;;;;-3.00;99.90;;;;;;6242796;23;19961;-69
2022/12/13 10:40:35;;;;;;;;;;;;;;;;;;6242699;23;19912;-69
2022/12/13 10:43:05;;;;;;;;;;;-2.90;99.90;;;;;;6213895;23;19910;-69
2022/12/13 10:45:30;;;;;;;;;;;-2.90;99.90;;;;;;6243377;22;20012;-69
2022/12/13 10:47:56;;;;;;;;;;;;;;;;;;6242128;23;20348;-69
2022/12/13 10:50:22;;;;;;;;;;;;;;;;;;6242283;23;19949;-69
2022/12/13 10:52:48;;;;;;;;;;;;;;;;;;6239209;23;19930;-69
2022/12/13 10:55:33;;;;;;;;;;;-2.70;99.90;;;;;;6242436;23;19910;-68
2022/12/13 10:58:06;;;;;;;;;;;-2.70;99.90;;;;;;6242442;23;19911;-70
2022/12/13 11:00:32;;;;;;;;;;;;;;;;;;6243608;23;19926;-70
2022/12/13 11:02:57;;;;;;;;;;;-2.60;99.90;;;;;;6239408;22;19907;-69
2022/12/13 11:05:23;;;;;;;;;;;;;;;;;;6241568;23;19961;-69
2022/12/13 11:07:49;;;;;;;;;;;;;;;;;;6241930;23;19966;-69
2022/12/13 11:10:15;;;;;;;;;;;;;;;;;;6242783;22;19908;-69
2022/12/13 11:12:41;;;;;;;;;;;;;;;;;;6241432;23;19903;-69
2022/12/13 11:15:07;;;;;;;;;;;;;;;;;;6214340;23;19953;-70
2022/12/13 11:17:33;;;;;;;;;;;;;;;;;;6242424;23;19954;-71
2022/12/13 11:19:58;;;;;;;;;;;;;;;;;;6241260;23;20324;-68
2022/12/13 11:22:24;;;;;;;;;;;;;;;;;;6242167;23;19945;-69
2022/12/13 11:24:50;;;;;;;;;;;;;;;;;;6212772;23;19904;-70
2022/12/13 11:27:30;;;;;;;;;;;-2.10;99.90;;;;;;6241255;23;19918;-70
2022/12/13 11:30:07;;;;;;;;;;;-2.00;99.90;;;;;;6242118;23;20329;-69
2022/12/13 11:32:33;;;;;;;;;;;;;;;;;;6246745;22;19923;-69
2022/12/13 11:34:58;;;;;;;;;;;;;;;;;;6270744;22;19933;-69
2022/12/13 11:39:58;;;;;;;;;;;;;;;;;;6209754;23;19970;-69
2022/12/13 11:42:24;;;;;;;;;;;;;;;;;;6210699;23;19900;-69
2022/12/13 11:44:50;;;;;;;;;;;;;;;;;;6209610;23;19911;-69
2022/12/13 11:47:16;;;;;;;;;;;;;;;;;;6210054;23;19938;-70
2022/12/13 11:49:42;;;;;;;;;;;;;;;;;;6210454;23;19927;-70
2022/12/13 11:52:08;;;;;;;;;;;;;;;;;;6211795;23;19904;-70
2022/12/13 11:54:34;;;;;;;;;;;;;;;;;;6210443;23;19955;-70
2022/12/13 11:57:03;;;;;;;;;;;;;;;;;;6210476;23;19946;-70
2022/12/13 11:59:41;;;;;;;;;;;-1.90;99.90;;;;;;6211548;23;19912;-70
2022/12/13 12:02:07;;;;;;;;;;;;;;;;;;6211491;23;19910;-70
2022/12/13 12:04:33;;;;;;;;;;;;;;;;;;6210341;23;19904;-70
2022/12/13 12:06:58;;;;;;;;;;;;;;;;;;6209144;23;19912;-69
2022/12/13 12:09:24;;;;;;;;;;;;;;;;;;6210390;23;19904;-70
2022/12/13 12:11:50;;;;;;;;;;;;;;;;;;6213068;23;19904;-69
2022/12/13 12:14:16;;;;;;;;;;;;;;;;;;6212700;23;20280;-69
2022/12/13 12:16:48;;;;;;;;;;;-2.10;99.90;;;;;;6213666;23;19904;-70
2022/12/13 12:19:14;;;;;;;;;;;;;;;;;;6212446;23;19973;-69
2022/12/13 12:21:58;;;;;;;;;;;-2.10;99.90;;;;;;6213669;23;20589;-69
2022/12/13 12:24:24;;;;;;;;;;;;;;;;;;6212960;23;19904;-69
2022/12/13 12:26:49;;;;;;;;;;;;;;;;;;6213516;23;19912;-70
2022/12/13 12:29:15;;;;;;;;;;;;;;;;;;6213216;23;19904;-70
2022/12/13 12:31:48;;;;;;;;;;;-2.00;99.90;;;;;;6211929;23;19939;-70
2022/12/13 12:34:21;;;;;;;;;;;-2.20;99.90;;;;;;6212492;23;19904;-70
2022/12/13 12:36:47;;;;;;;;;;;;;;;;;;6212255;23;19904;-70
2022/12/13 12:39:21;;;;;;;;;;;-2.10;99.90;;;;;;6213590;23;19920;-70
2022/12/13 12:41:47;;;;;;;;;;;;;;;;;;6212307;23;19911;-70
2022/12/13 12:44:17;;;;;;;;;;;-2.20;99.90;;;;;;6212247;23;19904;-69
2022/12/13 12:46:52;;;;;;;;;;;-2.10;99.90;;;;;;6213121;23;19919;-70
2022/12/13 12:49:34;;;;;;;;;;;-2.10;99.90;;;;;;6213782;23;20236;-70
2022/12/13 12:52:00;;;;;;;;;;;;;;;;;;6211934;23;19911;-70
2022/12/13 12:54:26;;;;;;;;;;;;;;;;;;6211732;23;19908;-70
2022/12/13 12:56:52;;;;;;;;;;;;;;;;;;6213151;23;19908;-69
2022/12/13 12:59:36;;;;;;;;;;;-1.90;99.90;;;;;;6213173;23;19954;-69
2022/12/13 13:02:02;;;;;;;;;;;;;;;;;;6211415;23;20276;-70
2022/12/13 13:04:28;;;;;;;;;;;;;;;;;;6211688;23;19912;-69
2022/12/13 13:06:57;;;;;;;;;;;-1.80;99.90;;;;;;6213352;23;19919;-69
2022/12/13 13:09:23;;;;;;;;;;;;;;;;;;6211826;23;19930;-70
2022/12/13 13:11:49;;;;;;;;;;;;;;;;;;6211797;23;19987;-68
2022/12/13 13:14:35;;;;;;;;;;;-1.70;99.90;;;;;;6210534;23;19904;-68
2022/12/13 13:17:01;;;;;;;;;;;;;;;;;;6212333;23;19908;-69
2022/12/13 13:19:27;;;;;;;;;;;;;;;;;;6212705;23;19904;-68
2022/12/13 13:21:56;;;;;;;;;;;-1.70;99.90;;;;;;6211449;23;19910;-69
2022/12/13 13:24:23;;;;;;;;;;;-1.70;99.90;;;;;;6210113;23;19908;-69
2022/12/13 13:26:49;;;;;;;;;;;;;;;;;;6212803;23;20343;-68
2022/12/13 13:29:15;;;;;;;;;;;;;;;;;;6212567;23;19983;-68
2022/12/13 13:31:59;;;;;;;;;;;-1.70;99.90;;;;;;6212788;23;19977;-69
2022/12/13 13:34:26;;;;;;;;;;;;;;;;;;6209398;23;20412;-69
2022/12/13 13:36:54;;;;;;;;;;;-1.70;99.90;;;;;;6211911;23;19904;-68
2022/12/13 13:39:20;;;;;;;;;;;;;;;;;;6213235;23;19923;-69
2022/12/13 13:42:07;;;;;;;;;;;-1.90;99.90;;;;;;6212714;23;19904;-69
2022/12/13 13:44:33;;;;;;;;;;;;;;;;;;6211662;23;19931;-69
2022/12/13 13:47:17;;;;;;;;;;;-1.80;99.90;;;;;;6211624;23;19912;-69
2022/12/13 13:49:43;;;;;;;;;;;;;;;;;;6213109;23;20367;-70
2022/12/13 13:52:09;;;;;;;;;;;;;;;;;;6212644;23;19983;-69
2022/12/13 13:54:35;;;;;;;;;;;;;;;;;;6211985;23;20298;-68
2022/12/13 13:57:00;;;;;;;;;;;;;;;;;;6211059;23;19981;-68
2022/12/13 13:59:26;;;;;;;;;;;;;;;;;;6211895;23;19904;-69
2022/12/13 14:02:07;;;;;;;;;;;-1.80;99.90;;;;;;6211858;23;20375;-68
2022/12/13 14:04:51;;;;;;;;;;;-1.70;99.90;;;;;;6211391;23;20372;-69
2022/12/13 14:07:17;;;;;;;;;;;;;;;;;;6212622;23;19916;-69
2022/12/13 14:09:49;;;;;;;;;;;-1.70;99.90;;;;;;6211791;23;20380;-69
2022/12/13 14:12:14;;;;;;;;;;;;;;;;;;6212731;23;19904;-69
2022/12/13 14:14:46;;;;;;;;;;;-1.70;99.90;;;;;;6210566;23;19990;-69
2022/12/13 14:17:12;;;;;;;;;;;;;;;;;;6212267;23;20010;-68
2022/12/13 14:19:38;;;;;;;;;;;;;;;;;;6211096;23;19997;-68
2022/12/13 14:22:04;;;;;;;;;;;;;;;;;;6212643;23;19912;-69
2022/12/13 14:24:32;;;;;;;;;;;-1.70;99.90;;;;;;6211301;23;19908;-68
2022/12/13 14:26:58;;;;;;;;;;;;;;;;;;6211693;23;19923;-68
2022/12/13 14:29:28;;;;;;;;;;;-1.70;99.90;;;;;;6210957;23;19908;-69
2022/12/13 14:31:54;;;;;;;;;;;-1.70;99.90;;;;;;6211027;23;19904;-68
2022/12/13 14:34:23;;;;;;;;;;;-1.70;99.90;;;;;;6210861;23;19946;-69
2022/12/13 14:36:56;;;;;;;;;;;-1.70;99.90;;;;;;6211486;23;19904;-69
2022/12/13 14:39:24;;;;;;;;;;;;;;;;;;6212214;23;19922;-68
2022/12/13 14:41:50;;;;;;;;;;;;;;;;;;6209263;23;19939;-70
2022/12/13 14:44:16;;;;;;;;;;;;;;;;;;6211206;23;19908;-71
2022/12/13 14:46:55;;;;;;;;;;;-1.70;99.90;;;;;;6211612;23;20193;-69
2022/12/13 14:49:21;;;;;;;;;;;-1.80;99.90;;;;;;6212293;23;20321;-69
2022/12/13 14:51:47;;;;;;;;;;;;;;;;;;6211037;23;19939;-70
2022/12/13 14:54:17;;;;;;;;;;;-1.80;99.90;;;;;;6210717;23;20237;-70
2022/12/13 14:56:53;;;;;;;;;;;-1.80;99.90;;;;;;6211169;23;19904;-70
2022/12/13 14:59:18;;;;;;;;;;;-1.80;99.90;;;;;;6212012;23;19911;-70
2022/12/13 15:01:47;;;;;;;;;;;;;;;;;;6212175;23;19904;-69
2022/12/13 15:04:16;;;;;;;;;;;-1.80;99.90;;;;;;6209770;23;20280;-69
2022/12/13 15:06:41;;;;;;;;;;;;;;;;;;6211672;23;19908;-69
2022/12/13 15:09:07;;;;;;;;;;;;;;;;;;6211796;23;20379;-70
2022/12/13 15:11:34;;;;;;;;;;;-1.90;99.90;;;;;;6211749;23;19927;-70
2022/12/13 15:14:00;;;;;;;;;;;-1.90;99.90;;;;;;6208848;23;19957;-69
2022/12/13 15:16:27;;;;;;;;;;;-1.90;99.90;;;;;;6211301;23;19999;-69
2022/12/13 15:19:06;;;;;;;;;;;-1.90;99.90;;;;;;6211393;23;19919;-69
2022/12/13 15:21:32;;;;;;;;;;;;;;;;;;6211812;23;19983;-70
2022/12/13 15:23:58;;;;;;;;;;;;;;;;;;6208615;23;19952;-70
2022/12/13 15:26:25;;;;;;;;;;;-1.90;99.90;;;;;;6210913;23;19904;-69
2022/12/13 15:28:55;;;;;;;;;;;-1.90;99.90;;;;;;6211670;23;19911;-70
2022/12/13 15:31:20;;;;;;;;;;;;;;;;;;6211918;23;19904;-70
2022/12/13 15:33:46;;;;;;;;;;;-2.00;99.90;;;;;;6210606;23;19988;-69
2022/12/13 15:36:12;;;;;;;;;;;;;;;;;;6210403;23;19903;-69
2022/12/13 15:38:39;;;;;;;;;;;;;;;;;;6211183;23;19931;-69
2022/12/13 15:41:05;;;;;;;;;;;;;;;;;;6211266;23;19907;-69
2022/12/13 15:43:30;;;;;;;;;;;;;;;;;;6210966;23;19958;-69
2022/12/13 15:45:56;;;;;;;;;;;;;;;;;;6209059;23;19950;-69
2022/12/13 15:48:27;;;;;;;;;;;-1.90;99.90;;;;;;6212282;23;19943;-69
2022/12/13 15:51:04;;;;;;;;;;;-1.90;99.90;;;;;;6212236;23;19970;-69
2022/12/13 15:53:30;;;;;;;;;;;;;;;;;;6210249;23;19904;-69
2022/12/13 15:55:56;;;;;;;;;;;-1.90;99.90;;;;;;6209994;23;19908;-69
2022/12/13 15:58:22;;;;;;;;;;;;;;;;;;6212361;23;19927;-69
2022/12/13 16:00:48;;;;;;;;;;;;;;;;;;6211716;23;19908;-69
2022/12/13 16:03:16;;;;;;;;;;;-2.00;99.90;;;;;;6210653;23;19911;-69